sensor_id;sensor_type;location;lat;lon;timestamp;temperature;humidity
35129;DHT22;21301;43.626;10.580;2023-03-01T00:01:27;8.40;99.90
35129;DHT22;21301;43.626;10.580;2023-03-01T00:03:54;8.40;99.90
35129;DHT22;21301;43.626;10.580;2023-03-01T00:06:20;8.40;99.90
35129;DHT22;21301;43.626;10.580;2023-03-01T00:08:46;8.30;99.90
35129;DHT22;21301;43.626;10.580;2023-03-01T00:11:16;8.30;99.90
35129;DHT22;21301;43.626;10.580;2023-03-01T00:13:48;8.20;99.90
35129;DHT22;21301;43.626;10.580;2023-03-01T00:16:20;8.20;99.90
35129;DHT22;21301;43.626;10.580;2023-03-01T00:18:46;8.10;99.90
35129;DHT22;21301;43.626;10.580;2023-03-01T00:21:12;8.10;99.90
35129;DHT22;21301;43.626;10.580;2023-03-01T00:23:38;8.00;99.90
35129;DHT22;21301;43.626;10.580;2023-03-01T00:26:10;7.90;99.90
35129;DHT22;21301;43.626;10.580;2023-03-01T00:28:39;7.80;99.90
35129;DHT22;21301;43.626;10.580;2023-03-01T00:31:06;7.70;99.90
35129;DHT22;21301;43.626;10.580;2023-03-01T00:33:32;7.70;99.90
35129;DHT22;21301;43.626;10.580;2023-03-01T00:35:59;7.60;99.90
35129;DHT22;21301;43.626;10.580;2023-03-01T00:38:25;7.60;99.90
35129;DHT22;21301;43.626;10.580;2023-03-01T00:40:51;7.50;99.90
35129;DHT22;21301;43.626;10.580;2023-03-01T00:43:17;7.40;99.90
35129;DHT22;21301;43.626;10.580;2023-03-01T00:45:43;7.40;99.90
35129;DHT22;21301;43.626;10.580;2023-03-01T00:48:09;7.30;99.90
35129;DHT22;21301;43.626;10.580;2023-03-01T00:50:34;7.30;99.90
35129;DHT22;21301;43.626;10.580;2023-03-01T00:53:01;7.20;99.90
35129;DHT22;21301;43.626;10.580;2023-03-01T00:55:27;7.20;99.90
35129;DHT22;21301;43.626;10.580;2023-03-01T00:57:53;7.10;99.90
35129;DHT22;21301;43.626;10.580;2023-03-01T01:00:19;7.20;99.90
35129;DHT22;21301;43.626;10.580;2023-03-01T01:02:47;7.10;99.90
35129;DHT22;21301;43.626;10.580;2023-03-01T01:05:13;7.10;99.90
35129;DHT22;21301;43.626;10.580;2023-03-01T01:07:39;7.20;99.90
35129;DHT22;21301;43.626;10.580;2023-03-01T01:10:06;7.20;99.90
35129;DHT22;21301;43.626;10.580;2023-03-01T01:12:32;7.20;99.90
35129;DHT22;21301;43.626;10.580;2023-03-01T01:14:58;7.20;99.90
35129;DHT22;21301;43.626;10.580;2023-03-01T01:17:24;7.20;99.90
35129;DHT22;21301;43.626;10.580;2023-03-01T01:19:57;7.20;99.90
35129;DHT22;21301;43.626;10.580;2023-03-01T01:22:22;7.30;99.90
35129;DHT22;21301;43.626;10.580;2023-03-01T01:24:48;7.30;99.90
35129;DHT22;21301;43.626;10.580;2023-03-01T01:27:14;7.30;99.90
35129;DHT22;21301;43.626;10.580;2023-03-01T01:29:40;7.30;99.90
35129;DHT22;21301;43.626;10.580;2023-03-01T01:32:07;7.30;99.90
35129;DHT22;21301;43.626;10.580;2023-03-01T01:34:33;7.30;99.90
35129;DHT22;21301;43.626;10.580;2023-03-01T01:36:59;7.30;99.90
35129;DHT22;21301;43.626;10.580;2023-03-01T01:39:28;7.30;99.90
35129;DHT22;21301;43.626;10.580;2023-03-01T01:41:54;7.40;99.90
35129;DHT22;21301;43.626;10.580;2023-03-01T01:44:23;7.40;99.90
35129;DHT22;21301;43.626;10.580;2023-03-01T01:49:42;7.30;99.90
35129;DHT22;21301;43.626;10.580;2023-03-01T01:52:18;7.30;99.90
35129;DHT22;21301;43.626;10.580;2023-03-01T01:54:50;7.30;99.90
35129;DHT22;21301;43.626;10.580;2023-03-01T01:57:22;7.30;99.90
35129;DHT22;21301;43.626;10.580;2023-03-01T01:59:55;7.30;99.90
35129;DHT22;21301;43.626;10.580;2023-03-01T02:02:22;7.30;99.90
35129;DHT22;21301;43.626;10.580;2023-03-01T02:04:49;7.30;99.90
35129;DHT22;21301;43.626;10.580;2023-03-01T02:07:22;7.20;99.90
35129;DHT22;21301;43.626;10.580;2023-03-01T02:09:51;7.20;99.90
35129;DHT22;21301;43.626;10.580;2023-03-01T02:12:20;7.30;99.90
35129;DHT22;21301;43.626;10.580;2023-03-01T02:14:47;7.30;99.90
35129;DHT22;21301;43.626;10.580;2023-03-01T02:17:15;7.30;99.90
35129;DHT22;21301;43.626;10.580;2023-03-01T02:22:37;7.30;99.90
35129;DHT22;21301;43.626;10.580;2023-03-01T02:30:14;7.40;99.90
35129;DHT22;21301;43.626;10.580;2023-03-01T02:32:40;7.40;99.90
35129;DHT22;21301;43.626;10.580;2023-03-01T02:35:13;7.40;99.90
35129;DHT22;21301;43.626;10.580;2023-03-01T02:37:41;7.30;99.90
35129;DHT22;21301;43.626;10.580;2023-03-01T02:40:14;7.30;99.90
35129;DHT22;21301;43.626;10.580;2023-03-01T02:42:51;7.30;99.90
35129;DHT22;21301;43.626;10.580;2023-03-01T02:45:17;7.30;99.90
35129;DHT22;21301;43.626;10.580;2023-03-01T02:47:43;7.30;99.90
35129;DHT22;21301;43.626;10.580;2023-03-01T02:53:01;7.30;99.90
35129;DHT22;21301;43.626;10.580;2023-03-01T02:55:30;7.30;99.90
35129;DHT22;21301;43.626;10.580;2023-03-01T02:57:57;7.30;99.90
35129;DHT22;21301;43.626;10.580;2023-03-01T03:00:28;7.30;99.90
35129;DHT22;21301;43.626;10.580;2023-03-01T03:02:56;7.30;99.90
35129;DHT22;21301;43.626;10.580;2023-03-01T03:05:28;7.30;99.90
35129;DHT22;21301;43.626;10.580;2023-03-01T03:07:57;7.30;99.90
35129;DHT22;21301;43.626;10.580;2023-03-01T03:10:33;7.20;99.90
35129;DHT22;21301;43.626;10.580;2023-03-01T03:13:13;7.20;99.90
35129;DHT22;21301;43.626;10.580;2023-03-01T03:15:40;7.20;99.90
35129;DHT22;21301;43.626;10.580;2023-03-01T03:18:09;7.20;99.90
35129;DHT22;21301;43.626;10.580;2023-03-01T03:20:36;7.20;99.90
35129;DHT22;21301;43.626;10.580;2023-03-01T03:23:02;7.20;99.90
35129;DHT22;21301;43.626;10.580;2023-03-01T03:25:29;7.20;99.90
35129;DHT22;21301;43.626;10.580;2023-03-01T03:27:55;7.20;99.90
35129;DHT22;21301;43.626;10.580;2023-03-01T03:30:27;7.10;99.90
35129;DHT22;21301;43.626;10.580;2023-03-01T03:32:53;7.20;99.90
35129;DHT22;21301;43.626;10.580;2023-03-01T03:35:28;7.10;99.90
35129;DHT22;21301;43.626;10.580;2023-03-01T03:38:04;7.10;99.90
35129;DHT22;21301;43.626;10.580;2023-03-01T03:40:36;7.10;99.90
35129;DHT22;21301;43.626;10.580;2023-03-01T03:43:03;7.10;99.90
35129;DHT22;21301;43.626;10.580;2023-03-01T03:45:30;7.10;99.90
35129;DHT22;21301;43.626;10.580;2023-03-01T03:47:59;7.10;99.90
35129;DHT22;21301;43.626;10.580;2023-03-01T03:50:25;7.10;99.90
35129;DHT22;21301;43.626;10.580;2023-03-01T03:52:51;7.10;99.90
35129;DHT22;21301;43.626;10.580;2023-03-01T03:55:17;7.10;99.90
35129;DHT22;21301;43.626;10.580;2023-03-01T03:57:46;7.20;99.90
35129;DHT22;21301;43.626;10.580;2023-03-01T04:00:21;7.20;99.90
35129;DHT22;21301;43.626;10.580;2023-03-01T04:02:50;7.20;99.90
35129;DHT22;21301;43.626;10.580;2023-03-01T04:05:18;7.20;99.90
35129;DHT22;21301;43.626;10.580;2023-03-01T04:07:45;7.20;99.90
35129;DHT22;21301;43.626;10.580;2023-03-01T04:10:18;7.20;99.90
35129;DHT22;21301;43.626;10.580;2023-03-01T04:12:44;7.30;99.90
35129;DHT22;21301;43.626;10.580;2023-03-01T04:15:11;7.30;99.90
35129;DHT22;21301;43.626;10.580;2023-03-01T04:17:42;7.30;99.90
35129;DHT22;21301;43.626;10.580;2023-03-01T04:20:15;7.30;99.90
35129;DHT22;21301;43.626;10.580;2023-03-01T04:22:51;7.20;99.90
35129;DHT22;21301;43.626;10.580;2023-03-01T04:25:18;7.20;99.90
35129;DHT22;21301;43.626;10.580;2023-03-01T04:27:44;7.20;99.90
35129;DHT22;21301;43.626;10.580;2023-03-01T04:30:10;7.20;99.90
35129;DHT22;21301;43.626;10.580;2023-03-01T04:32:36;7.20;99.90
35129;DHT22;21301;43.626;10.580;2023-03-01T04:35:02;7.30;99.90
35129;DHT22;21301;43.626;10.580;2023-03-01T04:37:28;7.30;99.90
35129;DHT22;21301;43.626;10.580;2023-03-01T04:39:55;7.30;99.90
35129;DHT22;21301;43.626;10.580;2023-03-01T04:42:21;7.30;99.90
35129;DHT22;21301;43.626;10.580;2023-03-01T04:44:46;7.30;99.90
35129;DHT22;21301;43.626;10.580;2023-03-01T04:47:13;7.30;99.90
35129;DHT22;21301;43.626;10.580;2023-03-01T04:49:38;7.30;99.90
35129;DHT22;21301;43.626;10.580;2023-03-01T04:52:04;7.30;99.90
35129;DHT22;21301;43.626;10.580;2023-03-01T04:54:31;7.30;99.90
35129;DHT22;21301;43.626;10.580;2023-03-01T04:56:58;7.40;99.90
35129;DHT22;21301;43.626;10.580;2023-03-01T04:59:24;7.40;99.90
35129;DHT22;21301;43.626;10.580;2023-03-01T05:01:51;7.40;99.90
35129;DHT22;21301;43.626;10.580;2023-03-01T05:04:17;7.40;99.90
35129;DHT22;21301;43.626;10.580;2023-03-01T05:06:44;7.40;99.90
35129;DHT22;21301;43.626;10.580;2023-03-01T05:09:10;7.40;99.90
35129;DHT22;21301;43.626;10.580;2023-03-01T05:11:37;7.40;99.90
35129;DHT22;21301;43.626;10.580;2023-03-01T05:14:04;7.40;99.90
35129;DHT22;21301;43.626;10.580;2023-03-01T05:16:30;7.40;99.90
35129;DHT22;21301;43.626;10.580;2023-03-01T05:18:58;7.40;99.90
35129;DHT22;21301;43.626;10.580;2023-03-01T05:21:24;7.40;99.90
35129;DHT22;21301;43.626;10.580;2023-03-01T05:23:50;7.40;99.90
35129;DHT22;21301;43.626;10.580;2023-03-01T05:26:18;7.40;99.90
35129;DHT22;21301;43.626;10.580;2023-03-01T05:28:44;7.40;99.90
35129;DHT22;21301;43.626;10.580;2023-03-01T05:31:10;7.40;99.90
35129;DHT22;21301;43.626;10.580;2023-03-01T05:33:40;7.40;99.90
35129;DHT22;21301;43.626;10.580;2023-03-01T05:36:07;7.40;99.90
35129;DHT22;21301;43.626;10.580;2023-03-01T05:38:34;7.40;99.90
35129;DHT22;21301;43.626;10.580;2023-03-01T05:41:00;7.30;99.90
35129;DHT22;21301;43.626;10.580;2023-03-01T05:43:25;7.30;99.90
35129;DHT22;21301;43.626;10.580;2023-03-01T05:45:51;7.40;99.90
35129;DHT22;21301;43.626;10.580;2023-03-01T05:48:17;7.30;99.90
35129;DHT22;21301;43.626;10.580;2023-03-01T05:50:45;7.40;99.90
35129;DHT22;21301;43.626;10.580;2023-03-01T05:53:18;7.40;99.90
35129;DHT22;21301;43.626;10.580;2023-03-01T05:55:48;7.40;99.90
35129;DHT22;21301;43.626;10.580;2023-03-01T05:58:17;7.40;99.90
35129;DHT22;21301;43.626;10.580;2023-03-01T06:00:44;7.40;99.90
35129;DHT22;21301;43.626;10.580;2023-03-01T06:03:12;7.40;99.90
35129;DHT22;21301;43.626;10.580;2023-03-01T06:05:39;7.50;99.90
35129;DHT22;21301;43.626;10.580;2023-03-01T06:08:06;7.50;99.90
35129;DHT22;21301;43.626;10.580;2023-03-01T06:10:32;7.50;99.90
35129;DHT22;21301;43.626;10.580;2023-03-01T06:12:58;7.50;99.90
35129;DHT22;21301;43.626;10.580;2023-03-01T06:15:25;7.50;99.90
35129;DHT22;21301;43.626;10.580;2023-03-01T06:17:51;7.50;99.90
35129;DHT22;21301;43.626;10.580;2023-03-01T06:20:19;7.50;99.90
35129;DHT22;21301;43.626;10.580;2023-03-01T06:22:46;7.50;99.90
35129;DHT22;21301;43.626;10.580;2023-03-01T06:25:14;7.50;99.90
35129;DHT22;21301;43.626;10.580;2023-03-01T06:27:41;7.50;99.90
35129;DHT22;21301;43.626;10.580;2023-03-01T06:30:09;7.50;99.90
35129;DHT22;21301;43.626;10.580;2023-03-01T06:32:36;7.50;99.90
35129;DHT22;21301;43.626;10.580;2023-03-01T06:35:04;7.50;99.90
35129;DHT22;21301;43.626;10.580;2023-03-01T06:37:30;7.50;99.90
35129;DHT22;21301;43.626;10.580;2023-03-01T06:39:55;7.50;99.90
35129;DHT22;21301;43.626;10.580;2023-03-01T06:42:21;7.50;99.90
35129;DHT22;21301;43.626;10.580;2023-03-01T06:44:47;7.50;99.90
35129;DHT22;21301;43.626;10.580;2023-03-01T06:47:13;7.50;99.90
35129;DHT22;21301;43.626;10.580;2023-03-01T06:49:38;7.50;99.90
35129;DHT22;21301;43.626;10.580;2023-03-01T06:52:04;7.50;99.90
35129;DHT22;21301;43.626;10.580;2023-03-01T06:54:30;7.40;99.90
35129;DHT22;21301;43.626;10.580;2023-03-01T06:56:56;7.50;99.90
35129;DHT22;21301;43.626;10.580;2023-03-01T06:59:22;7.60;99.90
35129;DHT22;21301;43.626;10.580;2023-03-01T07:01:47;7.60;99.90
35129;DHT22;21301;43.626;10.580;2023-03-01T07:04:13;7.60;99.90
35129;DHT22;21301;43.626;10.580;2023-03-01T07:06:39;7.60;99.90
35129;DHT22;21301;43.626;10.580;2023-03-01T07:09:05;7.60;99.90
35129;DHT22;21301;43.626;10.580;2023-03-01T07:11:31;7.60;99.90
35129;DHT22;21301;43.626;10.580;2023-03-01T07:13:57;7.50;99.90
35129;DHT22;21301;43.626;10.580;2023-03-01T07:16:23;7.40;99.90
35129;DHT22;21301;43.626;10.580;2023-03-01T07:18:49;7.40;99.90
35129;DHT22;21301;43.626;10.580;2023-03-01T07:21:16;7.30;99.90
35129;DHT22;21301;43.626;10.580;2023-03-01T07:23:42;7.20;99.90
35129;DHT22;21301;43.626;10.580;2023-03-01T07:26:08;7.10;99.90
35129;DHT22;21301;43.626;10.580;2023-03-01T07:28:34;7.10;99.90
35129;DHT22;21301;43.626;10.580;2023-03-01T07:31:02;7.10;99.90
35129;DHT22;21301;43.626;10.580;2023-03-01T07:33:28;7.00;99.90
35129;DHT22;21301;43.626;10.580;2023-03-01T07:36:02;7.00;99.90
35129;DHT22;21301;43.626;10.580;2023-03-01T07:38:29;7.00;99.90
35129;DHT22;21301;43.626;10.580;2023-03-01T07:41:03;6.90;99.90
35129;DHT22;21301;43.626;10.580;2023-03-01T07:43:30;6.90;99.90
35129;DHT22;21301;43.626;10.580;2023-03-01T07:46:02;6.80;99.90
35129;DHT22;21301;43.626;10.580;2023-03-01T07:48:29;6.80;99.90
35129;DHT22;21301;43.626;10.580;2023-03-01T07:51:02;6.70;99.90
35129;DHT22;21301;43.626;10.580;2023-03-01T07:53:29;6.60;99.90
35129;DHT22;21301;43.626;10.580;2023-03-01T07:56:07;6.50;99.90
35129;DHT22;21301;43.626;10.580;2023-03-01T07:58:41;6.50;99.90
35129;DHT22;21301;43.626;10.580;2023-03-01T08:01:14;6.40;99.90
35129;DHT22;21301;43.626;10.580;2023-03-01T08:03:41;6.40;99.90
35129;DHT22;21301;43.626;10.580;2023-03-01T08:06:09;6.40;99.90
35129;DHT22;21301;43.626;10.580;2023-03-01T08:08:36;6.30;99.90
35129;DHT22;21301;43.626;10.580;2023-03-01T08:11:04;6.30;99.90
35129;DHT22;21301;43.626;10.580;2023-03-01T08:13:30;6.30;99.90
35129;DHT22;21301;43.626;10.580;2023-03-01T08:16:22;6.30;99.90
35129;DHT22;21301;43.626;10.580;2023-03-01T08:18:49;6.30;99.90
35129;DHT22;21301;43.626;10.580;2023-03-01T08:21:16;6.30;99.90
35129;DHT22;21301;43.626;10.580;2023-03-01T08:23:43;6.30;99.90
35129;DHT22;21301;43.626;10.580;2023-03-01T08:28:38;6.30;99.90
35129;DHT22;21301;43.626;10.580;2023-03-01T08:31:16;6.30;99.90
35129;DHT22;21301;43.626;10.580;2023-03-01T08:33:42;6.30;99.90
35129;DHT22;21301;43.626;10.580;2023-03-01T08:36:08;6.30;99.90
35129;DHT22;21301;43.626;10.580;2023-03-01T08:38:35;6.30;99.90
35129;DHT22;21301;43.626;10.580;2023-03-01T08:41:02;6.40;99.90
35129;DHT22;21301;43.626;10.580;2023-03-01T08:43:29;6.40;99.90
35129;DHT22;21301;43.626;10.580;2023-03-01T08:45:55;6.40;99.90
35129;DHT22;21301;43.626;10.580;2023-03-01T08:48:21;6.40;99.90
35129;DHT22;21301;43.626;10.580;2023-03-01T08:50:46;6.50;99.90
35129;DHT22;21301;43.626;10.580;2023-03-01T08:53:12;6.40;99.90
35129;DHT22;21301;43.626;10.580;2023-03-01T08:55:38;6.50;99.90
35129;DHT22;21301;43.626;10.580;2023-03-01T08:58:04;6.50;99.90
35129;DHT22;21301;43.626;10.580;2023-03-01T09:00:30;6.50;99.90
35129;DHT22;21301;43.626;10.580;2023-03-01T09:02:55;6.50;99.90
35129;DHT22;21301;43.626;10.580;2023-03-01T09:05:21;6.50;99.90
35129;DHT22;21301;43.626;10.580;2023-03-01T09:07:47;6.50;99.90
35129;DHT22;21301;43.626;10.580;2023-03-01T09:10:13;6.50;99.90
35129;DHT22;21301;43.626;10.580;2023-03-01T09:12:39;6.50;99.90
35129;DHT22;21301;43.626;10.580;2023-03-01T09:15:05;6.50;99.90
35129;DHT22;21301;43.626;10.580;2023-03-01T09:17:31;6.50;99.90
35129;DHT22;21301;43.626;10.580;2023-03-01T09:19:56;6.50;99.90
35129;DHT22;21301;43.626;10.580;2023-03-01T09:22:22;6.50;99.90
35129;DHT22;21301;43.626;10.580;2023-03-01T09:24:48;6.50;99.90
35129;DHT22;21301;43.626;10.580;2023-03-01T09:27:14;6.40;99.90
35129;DHT22;21301;43.626;10.580;2023-03-01T09:29:40;6.50;99.90
35129;DHT22;21301;43.626;10.580;2023-03-01T09:32:05;6.50;99.90
35129;DHT22;21301;43.626;10.580;2023-03-01T09:34:33;6.40;99.90
35129;DHT22;21301;43.626;10.580;2023-03-01T09:37:19;6.40;99.90
35129;DHT22;21301;43.626;10.580;2023-03-01T09:39:45;6.40;99.90
35129;DHT22;21301;43.626;10.580;2023-03-01T09:42:11;6.30;99.90
35129;DHT22;21301;43.626;10.580;2023-03-01T09:44:52;6.40;99.90
35129;DHT22;21301;43.626;10.580;2023-03-01T09:47:24;6.40;99.90
35129;DHT22;21301;43.626;10.580;2023-03-01T09:50:19;6.50;99.90
35129;DHT22;21301;43.626;10.580;2023-03-01T09:52:59;6.40;99.90
35129;DHT22;21301;43.626;10.580;2023-03-01T09:55:31;6.40;99.90
35129;DHT22;21301;43.626;10.580;2023-03-01T10:00:45;6.50;99.90
35129;DHT22;21301;43.626;10.580;2023-03-01T10:06:04;6.50;99.90
35129;DHT22;21301;43.626;10.580;2023-03-01T10:11:02;6.50;99.90
35129;DHT22;21301;43.626;10.580;2023-03-01T10:13:45;6.50;99.90
35129;DHT22;21301;43.626;10.580;2023-03-01T10:16:22;6.50;99.90
35129;DHT22;21301;43.626;10.580;2023-03-01T10:18:59;6.40;99.90
35129;DHT22;21301;43.626;10.580;2023-03-01T10:21:27;6.50;99.90
35129;DHT22;21301;43.626;10.580;2023-03-01T10:23:55;6.50;99.90
35129;DHT22;21301;43.626;10.580;2023-03-01T10:26:43;6.50;99.90
35129;DHT22;21301;43.626;10.580;2023-03-01T10:29:13;6.50;99.90
35129;DHT22;21301;43.626;10.580;2023-03-01T10:31:48;6.50;99.90
35129;DHT22;21301;43.626;10.580;2023-03-01T10:34:30;6.40;99.90
35129;DHT22;21301;43.626;10.580;2023-03-01T10:37:17;6.40;99.90
35129;DHT22;21301;43.626;10.580;2023-03-01T10:40:03;6.40;99.90
35129;DHT22;21301;43.626;10.580;2023-03-01T10:42:39;6.40;99.90
35129;DHT22;21301;43.626;10.580;2023-03-01T10:47:44;6.40;99.90
35129;DHT22;21301;43.626;10.580;2023-03-01T10:50:22;6.40;99.90
35129;DHT22;21301;43.626;10.580;2023-03-01T10:52:59;6.40;99.90
35129;DHT22;21301;43.626;10.580;2023-03-01T10:55:37;6.50;99.90
35129;DHT22;21301;43.626;10.580;2023-03-01T10:58:08;6.40;99.90
35129;DHT22;21301;43.626;10.580;2023-03-01T11:03:38;6.40;99.90
35129;DHT22;21301;43.626;10.580;2023-03-01T11:06:06;6.30;99.90
35129;DHT22;21301;43.626;10.580;2023-03-01T11:08:46;6.40;99.90
35129;DHT22;21301;43.626;10.580;2023-03-01T11:17:01;6.40;99.90
35129;DHT22;21301;43.626;10.580;2023-03-01T11:19:27;6.40;99.90
35129;DHT22;21301;43.626;10.580;2023-03-01T11:22:11;6.40;99.90
35129;DHT22;21301;43.626;10.580;2023-03-01T11:24:47;6.30;99.90
35129;DHT22;21301;43.626;10.580;2023-03-01T11:27:18;6.30;99.90
35129;DHT22;21301;43.626;10.580;2023-03-01T11:30:00;6.30;99.90
35129;DHT22;21301;43.626;10.580;2023-03-01T11:32:36;6.30;99.90
35129;DHT22;21301;43.626;10.580;2023-03-01T11:35:24;6.30;99.90
35129;DHT22;21301;43.626;10.580;2023-03-01T11:40:37;6.30;99.90
35129;DHT22;21301;43.626;10.580;2023-03-01T11:43:51;6.20;99.90
35129;DHT22;21301;43.626;10.580;2023-03-01T11:52:20;6.00;99.90
35129;DHT22;21301;43.626;10.580;2023-03-01T12:00:16;6.00;99.90
35129;DHT22;21301;43.626;10.580;2023-03-01T12:05:38;6.00;99.90
35129;DHT22;21301;43.626;10.580;2023-03-01T12:16:34;6.00;99.90
35129;DHT22;21301;43.626;10.580;2023-03-01T12:21:49;6.10;99.90
35129;DHT22;21301;43.626;10.580;2023-03-01T12:27:12;6.00;99.90
35129;DHT22;21301;43.626;10.580;2023-03-01T12:30:16;5.90;99.90
35129;DHT22;21301;43.626;10.580;2023-03-01T12:32:57;5.90;99.90
35129;DHT22;21301;43.626;10.580;2023-03-01T12:38:42;5.90;99.90
35129;DHT22;21301;43.626;10.580;2023-03-01T12:49:18;5.80;99.90
35129;DHT22;21301;43.626;10.580;2023-03-01T12:51:58;5.80;99.90
35129;DHT22;21301;43.626;10.580;2023-03-01T12:54:31;5.80;99.90
35129;DHT22;21301;43.626;10.580;2023-03-01T12:57:12;5.70;99.90
35129;DHT22;21301;43.626;10.580;2023-03-01T12:59:47;5.80;99.90
35129;DHT22;21301;43.626;10.580;2023-03-01T13:05:04;5.80;99.90
35129;DHT22;21301;43.626;10.580;2023-03-01T13:08:02;5.80;99.90
35129;DHT22;21301;43.626;10.580;2023-03-01T13:10:55;5.90;99.90
35129;DHT22;21301;43.626;10.580;2023-03-01T13:13:25;5.80;99.90
35129;DHT22;21301;43.626;10.580;2023-03-01T13:15:52;5.90;99.90
35129;DHT22;21301;43.626;10.580;2023-03-01T13:20:52;5.80;99.90
35129;DHT22;21301;43.626;10.580;2023-03-01T13:28:41;5.70;99.90
35129;DHT22;21301;43.626;10.580;2023-03-01T13:33:47;5.90;99.90
35129;DHT22;21301;43.626;10.580;2023-03-01T13:44:26;6.00;99.90
35129;DHT22;21301;43.626;10.580;2023-03-01T13:49:55;6.00;99.90
35129;DHT22;21301;43.626;10.580;2023-03-01T13:52:44;5.90;99.90
35129;DHT22;21301;43.626;10.580;2023-03-01T13:55:24;6.00;99.90
35129;DHT22;21301;43.626;10.580;2023-03-01T13:57:56;6.00;99.90
35129;DHT22;21301;43.626;10.580;2023-03-01T14:00:37;5.90;99.90
35129;DHT22;21301;43.626;10.580;2023-03-01T14:03:09;5.90;99.90
35129;DHT22;21301;43.626;10.580;2023-03-01T14:05:35;5.90;99.90
35129;DHT22;21301;43.626;10.580;2023-03-01T14:08:03;5.90;99.90
35129;DHT22;21301;43.626;10.580;2023-03-01T14:10:43;5.90;99.90
35129;DHT22;21301;43.626;10.580;2023-03-01T14:18:48;5.90;99.90
35129;DHT22;21301;43.626;10.580;2023-03-01T14:21:17;6.00;99.90
35129;DHT22;21301;43.626;10.580;2023-03-01T14:23:43;6.00;99.90
35129;DHT22;21301;43.626;10.580;2023-03-01T14:26:09;6.00;99.90
35129;DHT22;21301;43.626;10.580;2023-03-01T14:28:38;6.00;99.90
35129;DHT22;21301;43.626;10.580;2023-03-01T14:33:57;5.90;99.90
35129;DHT22;21301;43.626;10.580;2023-03-01T14:36:29;6.00;99.90
35129;DHT22;21301;43.626;10.580;2023-03-01T14:38:55;6.00;99.90
35129;DHT22;21301;43.626;10.580;2023-03-01T14:41:26;6.00;99.90
35129;DHT22;21301;43.626;10.580;2023-03-01T14:46:40;6.00;99.90
35129;DHT22;21301;43.626;10.580;2023-03-01T14:51:46;6.00;99.90
35129;DHT22;21301;43.626;10.580;2023-03-01T14:54:22;6.00;99.90
35129;DHT22;21301;43.626;10.580;2023-03-01T14:56:51;6.10;99.90
35129;DHT22;21301;43.626;10.580;2023-03-01T14:59:22;6.10;99.90
35129;DHT22;21301;43.626;10.580;2023-03-01T15:01:50;6.10;99.90
35129;DHT22;21301;43.626;10.580;2023-03-01T15:04:17;6.10;99.90
35129;DHT22;21301;43.626;10.580;2023-03-01T15:06:43;6.10;99.90
35129;DHT22;21301;43.626;10.580;2023-03-01T15:09:14;6.00;99.90
35129;DHT22;21301;43.626;10.580;2023-03-01T15:11:44;6.10;99.90
35129;DHT22;21301;43.626;10.580;2023-03-01T15:14:42;6.10;99.90
35129;DHT22;21301;43.626;10.580;2023-03-01T15:17:40;6.10;99.90
35129;DHT22;21301;43.626;10.580;2023-03-01T15:20:16;6.10;99.90
35129;DHT22;21301;43.626;10.580;2023-03-01T15:22:45;6.10;99.90
35129;DHT22;21301;43.626;10.580;2023-03-01T15:25:16;6.10;99.90
35129;DHT22;21301;43.626;10.580;2023-03-01T15:27:46;6.10;99.90
35129;DHT22;21301;43.626;10.580;2023-03-01T15:30:25;6.20;99.90
35129;DHT22;21301;43.626;10.580;2023-03-01T15:35:46;6.20;99.90
35129;DHT22;21301;43.626;10.580;2023-03-01T15:38:26;6.20;99.90
35129;DHT22;21301;43.626;10.580;2023-03-01T15:40:53;6.20;99.90
35129;DHT22;21301;43.626;10.580;2023-03-01T15:43:44;6.30;99.90
35129;DHT22;21301;43.626;10.580;2023-03-01T15:46:32;6.30;99.90
35129;DHT22;21301;43.626;10.580;2023-03-01T15:49:20;6.30;99.90
35129;DHT22;21301;43.626;10.580;2023-03-01T15:51:48;6.30;99.90
35129;DHT22;21301;43.626;10.580;2023-03-01T15:54:24;6.30;99.90
35129;DHT22;21301;43.626;10.580;2023-03-01T15:56:51;6.30;99.90
35129;DHT22;21301;43.626;10.580;2023-03-01T15:59:17;6.40;99.90
35129;DHT22;21301;43.626;10.580;2023-03-01T16:01:44;6.40;99.90
35129;DHT22;21301;43.626;10.580;2023-03-01T16:04:11;6.40;99.90
35129;DHT22;21301;43.626;10.580;2023-03-01T16:06:42;6.40;99.90
35129;DHT22;21301;43.626;10.580;2023-03-01T16:09:08;6.50;99.90
35129;DHT22;21301;43.626;10.580;2023-03-01T16:11:35;6.50;99.90
35129;DHT22;21301;43.626;10.580;2023-03-01T16:14:02;6.60;99.90
35129;DHT22;21301;43.626;10.580;2023-03-01T16:16:28;6.60;99.90
35129;DHT22;21301;43.626;10.580;2023-03-01T16:18:56;6.60;99.90
35129;DHT22;21301;43.626;10.580;2023-03-01T16:21:24;6.60;99.90
35129;DHT22;21301;43.626;10.580;2023-03-01T16:23:50;6.80;99.90
35129;DHT22;21301;43.626;10.580;2023-03-01T16:26:17;6.90;99.90
35129;DHT22;21301;43.626;10.580;2023-03-01T16:28:44;6.80;99.90
35129;DHT22;21301;43.626;10.580;2023-03-01T16:31:11;6.80;99.90
35129;DHT22;21301;43.626;10.580;2023-03-01T16:33:37;6.80;99.90
35129;DHT22;21301;43.626;10.580;2023-03-01T16:36:08;6.80;99.90
35129;DHT22;21301;43.626;10.580;2023-03-01T16:38:34;6.80;99.90
35129;DHT22;21301;43.626;10.580;2023-03-01T16:41:00;6.80;99.90
35129;DHT22;21301;43.626;10.580;2023-03-01T16:43:26;6.80;99.90
35129;DHT22;21301;43.626;10.580;2023-03-01T16:45:52;6.80;99.90
35129;DHT22;21301;43.626;10.580;2023-03-01T16:48:18;6.70;99.90
35129;DHT22;21301;43.626;10.580;2023-03-01T16:50:44;6.70;99.90
35129;DHT22;21301;43.626;10.580;2023-03-01T16:53:10;6.70;99.90
35129;DHT22;21301;43.626;10.580;2023-03-01T16:55:36;6.70;99.90
35129;DHT22;21301;43.626;10.580;2023-03-01T16:58:03;6.60;99.90
35129;DHT22;21301;43.626;10.580;2023-03-01T17:00:29;6.60;99.90
35129;DHT22;21301;43.626;10.580;2023-03-01T17:02:55;6.60;99.90
35129;DHT22;21301;43.626;10.580;2023-03-01T17:05:21;6.50;99.90
35129;DHT22;21301;43.626;10.580;2023-03-01T17:07:49;6.50;99.90
35129;DHT22;21301;43.626;10.580;2023-03-01T17:10:15;6.50;99.90
35129;DHT22;21301;43.626;10.580;2023-03-01T17:12:40;6.50;99.90
35129;DHT22;21301;43.626;10.580;2023-03-01T17:15:06;6.40;99.90
35129;DHT22;21301;43.626;10.580;2023-03-01T17:17:32;6.50;99.90
35129;DHT22;21301;43.626;10.580;2023-03-01T17:20:00;6.40;99.90
35129;DHT22;21301;43.626;10.580;2023-03-01T17:22:26;6.40;99.90
35129;DHT22;21301;43.626;10.580;2023-03-01T17:24:52;6.30;99.90
35129;DHT22;21301;43.626;10.580;2023-03-01T17:27:17;6.30;99.90
35129;DHT22;21301;43.626;10.580;2023-03-01T17:29:44;6.20;99.90
35129;DHT22;21301;43.626;10.580;2023-03-01T17:32:10;6.20;99.90
35129;DHT22;21301;43.626;10.580;2023-03-01T17:34:35;6.20;99.90
35129;DHT22;21301;43.626;10.580;2023-03-01T17:37:02;6.10;99.90
35129;DHT22;21301;43.626;10.580;2023-03-01T17:39:28;6.10;99.90
35129;DHT22;21301;43.626;10.580;2023-03-01T17:42:01;6.10;99.90
35129;DHT22;21301;43.626;10.580;2023-03-01T17:44:27;6.10;99.90